Time,TemperatureF,DewpointF,PressureIn,WindDirection,WindDirectionDegrees,WindSpeedMPH,WindSpeedGustMPH,Humidity,HourlyPrecipIn,Conditions,Clouds,dailyrainin,SoftwareType,DateUTC
2013-04-07 00:00:00,36.4,27.9,29.98,WSW,250,0.0,5.0,71,0.00,,---,0.00,VWS V14.01,2013-04-07 06:00:00,
2013-04-07 00:05:00,36.2,27.7,29.98,WSW,250,0.0,0.0,71,0.00,,---,0.00,VWS V14.01,2013-04-07 06:05:00,
2013-04-07 00:10:00,36.0,27.5,29.98,WSW,251,0.0,0.0,71,0.00,,---,0.00,VWS V14.01,2013-04-07 06:10:00,
2013-04-07 00:15:00,35.7,27.6,29.98,WSW,251,0.0,0.0,72,0.00,,---,0.00,VWS V14.01,2013-04-07 06:15:00,
2013-04-07 00:20:00,35.4,27.6,29.98,WNW,300,0.0,0.0,73,0.00,,---,0.00,VWS V14.01,2013-04-07 06:20:00,
2013-04-07 00:25:00,35.3,27.5,29.97,NNW,329,0.0,0.0,73,0.00,,---,0.00,VWS V14.01,2013-04-07 06:25:00,
2013-04-07 00:30:00,35.5,27.0,29.97,NNW,330,0.0,1.0,71,0.00,,---,0.00,VWS V14.01,2013-04-07 06:30:00,
2013-04-07 00:35:00,36.0,27.2,29.97,NNW,333,1.0,1.0,70,0.00,,---,0.00,VWS V14.01,2013-04-07 06:35:00,
2013-04-07 00:40:00,36.2,27.0,29.98,WSW,250,0.0,1.0,69,0.00,,---,0.00,VWS V14.01,2013-04-07 06:40:00,
2013-04-07 00:45:00,36.6,27.0,29.98,WSW,256,2.0,3.0,68,0.00,,---,0.00,VWS V14.01,2013-04-07 06:45:00,
2013-04-07 00:50:00,36.7,27.9,29.98,WNW,291,1.0,4.0,70,0.00,,---,0.00,VWS V14.01,2013-04-07 06:50:00,
2013-04-07 00:55:00,36.5,28.0,29.98,WSW,253,0.0,4.0,71,0.00,,---,0.00,VWS V14.01,2013-04-07 06:55:00,
2013-04-07 01:00:00,36.3,28.8,29.98,NW,308,0.0,4.0,74,0.00,,---,0.00,VWS V14.01,2013-04-07 07:00:00,
2013-04-07 01:05:00,35.9,29.1,29.98,WSW,255,0.0,0.0,76,0.00,,---,0.00,VWS V14.01,2013-04-07 07:05:00,
2013-04-07 01:10:00,35.6,29.1,29.98,WSW,255,0.0,1.0,77,0.00,,---,0.00,VWS V14.01,2013-04-07 07:10:00,
2013-04-07 01:15:00,35.2,30.0,29.99,South,183,0.0,1.0,81,0.00,,---,0.00,VWS V14.01,2013-04-07 07:15:00,
2013-04-07 01:20:00,34.4,30.1,29.99,WNW,283,0.0,4.0,84,0.00,,---,0.00,VWS V14.01,2013-04-07 07:20:00,
2013-04-07 01:25:00,33.8,30.1,29.97,NW,311,1.0,4.0,86,0.00,,---,0.00,VWS V14.01,2013-04-07 07:25:00,
2013-04-07 01:30:00,33.3,30.1,29.97,WSW,248,0.0,4.0,88,0.00,,---,0.00,VWS V14.01,2013-04-07 07:30:00,
2013-04-07 01:35:00,32.9,30.0,29.97,SW,221,0.0,0.0,89,0.00,,---,0.00,VWS V14.01,2013-04-07 07:35:00,
2013-04-07 01:40:00,32.8,30.2,29.97,SW,221,0.0,0.0,90,0.00,,---,0.00,VWS V14.01,2013-04-07 07:40:00,
2013-04-07 01:45:00,32.7,30.4,29.97,ESE,118,0.0,1.0,91,0.00,,---,0.00,VWS V14.01,2013-04-07 07:45:00,
2013-04-07 01:50:00,32.6,30.3,29.96,SE,133,0.0,2.0,91,0.00,,---,0.00,VWS V14.01,2013-04-07 07:50:00,
2013-04-07 01:55:00,32.5,30.2,29.96,North,11,4.0,4.0,91,0.00,,---,0.00,VWS V14.01,2013-04-07 07:55:00,
2013-04-07 02:00:00,32.4,29.8,29.95,SW,232,2.0,4.0,90,0.00,,---,0.00,VWS V14.01,2013-04-07 08:00:00,
2013-04-07 02:05:00,32.4,29.2,29.94,WSW,238,0.0,3.0,88,0.00,,---,0.00,VWS V14.01,2013-04-07 08:05:00,
2013-04-07 02:10:00,32.3,28.9,29.94,North,356,2.0,3.0,87,0.00,,---,0.00,VWS V14.01,2013-04-07 08:10:00,
2013-04-07 02:15:00,32.3,28.0,29.93,West,266,0.0,4.0,84,0.00,,---,0.00,VWS V14.01,2013-04-07 08:15:00,
2013-04-07 02:20:00,32.4,27.8,29.93,WSW,245,1.0,6.0,83,0.00,,---,0.00,VWS V14.01,2013-04-07 08:20:00,
2013-04-07 02:25:00,32.3,27.7,29.92,WSW,247,2.0,6.0,83,0.00,,---,0.00,VWS V14.01,2013-04-07 08:25:00,
2013-04-07 02:30:00,32.4,26.9,29.92,NNW,327,1.0,8.0,80,0.00,,---,0.00,VWS V14.01,2013-04-07 08:30:00,
2013-04-07 02:35:00,32.6,26.8,29.91,North,10,1.0,5.0,79,0.00,,---,0.00,VWS V14.01,2013-04-07 08:35:00,
2013-04-07 02:40:00,32.9,26.8,29.91,SW,231,0.0,8.0,78,0.00,,---,0.00,VWS V14.01,2013-04-07 08:40:00,
2013-04-07 02:45:00,33.1,26.0,29.91,West,267,0.0,8.0,75,0.00,,---,0.00,VWS V14.01,2013-04-07 08:45:00,
2013-04-07 02:50:00,33.2,26.1,29.91,West,266,2.0,8.0,75,0.00,,---,0.00,VWS V14.01,2013-04-07 08:50:00,
2013-04-07 02:55:00,33.2,25.5,29.92,SW,235,1.0,8.0,73,0.00,,---,0.00,VWS V14.01,2013-04-07 08:55:00,
2013-04-07 03:00:00,33.1,25.7,29.91,NNW,341,1.0,8.0,74,0.00,,---,0.00,VWS V14.01,2013-04-07 09:00:00,
2013-04-07 03:05:00,32.8,25.8,29.92,NNW,348,2.0,2.0,75,0.00,,---,0.00,VWS V14.01,2013-04-07 09:05:00,
2013-04-07 03:10:00,32.6,25.2,29.92,East,101,1.0,3.0,74,0.00,,---,0.00,VWS V14.01,2013-04-07 09:10:00,
2013-04-07 03:15:00,32.6,25.2,29.92,SE,137,1.0,4.0,74,0.00,,---,0.00,VWS V14.01,2013-04-07 09:15:00,
2013-04-07 03:20:00,32.6,24.9,29.91,East,97,0.0,5.0,73,0.00,,---,0.00,VWS V14.01,2013-04-07 09:20:00,
2013-04-07 03:25:00,32.7,25.0,29.91,NNW,327,3.0,5.0,73,0.00,,---,0.00,VWS V14.01,2013-04-07 09:25:00,
2013-04-07 03:30:00,32.8,24.5,29.91,North,360,1.0,5.0,71,0.00,,---,0.00,VWS V14.01,2013-04-07 09:30:00,
2013-04-07 03:35:00,32.9,24.5,29.91,NNE,33,1.0,2.0,71,0.00,,---,0.00,VWS V14.01,2013-04-07 09:35:00,
2013-04-07 03:40:00,33.0,24.6,29.92,North,360,1.0,9.0,71,0.00,,---,0.00,VWS V14.01,2013-04-07 09:40:00,
2013-04-07 03:46:00,33.0,24.3,29.91,ESE,102,2.0,9.0,70,0.00,,---,0.00,VWS V14.01,2013-04-07 09:46:00,
2013-04-07 03:51:00,32.8,24.8,29.91,SSW,207,0.0,9.0,72,0.00,,---,0.00,VWS V14.01,2013-04-07 09:51:00,
2013-04-07 03:56:00,32.5,24.8,29.92,ESE,115,1.0,9.0,73,0.00,,---,0.00,VWS V14.01,2013-04-07 09:56:00,
2013-04-07 04:01:00,32.3,25.3,29.92,East,79,0.0,9.0,75,0.00,,---,0.00,VWS V14.01,2013-04-07 10:01:00,
2013-04-07 04:06:00,32.3,25.0,29.92,WSW,245,2.0,6.0,74,0.00,,---,0.00,VWS V14.01,2013-04-07 10:06:00,
2013-04-07 04:11:00,32.3,25.3,29.91,SE,131,1.0,6.0,75,0.00,,---,0.00,VWS V14.01,2013-04-07 10:11:00,
2013-04-07 04:16:00,32.3,25.3,29.91,NNW,328,1.0,6.0,75,0.00,,---,0.00,VWS V14.01,2013-04-07 10:16:00,
2013-04-07 04:21:00,32.2,24.9,29.91,East,90,0.0,6.0,74,0.00,,---,0.00,VWS V14.01,2013-04-07 10:21:00,
2013-04-07 04:26:00,32.1,24.4,29.91,SSW,194,0.0,6.0,73,0.00,,---,0.00,VWS V14.01,2013-04-07 10:26:00,
2013-04-07 04:31:00,32.2,23.5,29.90,ESE,120,0.0,6.0,70,0.00,,---,0.00,VWS V14.01,2013-04-07 10:31:00,
2013-04-07 04:36:00,32.3,22.9,29.90,North,358,2.0,2.0,68,0.00,,---,0.00,VWS V14.01,2013-04-07 10:36:00,
2013-04-07 04:41:00,32.5,22.8,29.90,NNW,335,1.0,4.0,67,0.00,,---,0.00,VWS V14.01,2013-04-07 10:41:00,
2013-04-07 04:46:00,32.7,22.6,29.90,WNW,285,0.0,5.0,66,0.00,,---,0.00,VWS V14.01,2013-04-07 10:46:00,
2013-04-07 04:51:00,32.8,22.3,29.90,North,351,0.0,5.0,65,0.00,,---,0.00,VWS V14.01,2013-04-07 10:51:00,
2013-04-07 04:57:00,32.9,22.1,29.90,West,277,1.0,5.0,64,0.00,,---,0.00,VWS V14.01,2013-04-07 10:57:00,
2013-04-07 05:02:00,32.9,22.1,29.90,West,277,1.0,5.0,64,0.00,,---,0.00,VWS V14.01,2013-04-07 11:02:00,
2013-04-07 05:07:00,32.9,22.1,29.90,West,277,1.0,1.0,64,0.00,,---,0.00,VWS V14.01,2013-04-07 11:07:00,
2013-04-07 05:12:00,32.9,22.1,29.90,West,277,1.0,1.0,64,0.00,,---,0.00,VWS V14.01,2013-04-07 11:12:00,
2013-04-07 05:17:00,32.9,22.1,29.90,West,277,1.0,1.0,64,0.00,,---,0.00,VWS V14.01,2013-04-07 11:17:00,
2013-04-07 05:22:00,32.9,22.1,29.89,West,277,1.0,1.0,64,0.00,,---,0.00,VWS V14.01,2013-04-07 11:22:00,
2013-04-07 05:27:00,32.9,22.1,29.89,West,277,1.0,1.0,64,0.00,,---,0.00,VWS V14.01,2013-04-07 11:27:00,
2013-04-07 05:32:00,32.9,22.1,29.89,West,277,1.0,1.0,64,0.00,,---,0.00,VWS V14.01,2013-04-07 11:32:00,
2013-04-07 05:37:00,32.9,22.1,29.89,West,277,1.0,1.0,64,0.00,,---,0.00,VWS V14.01,2013-04-07 11:37:00,
2013-04-07 05:42:00,32.9,22.1,29.89,West,277,1.0,1.0,64,0.00,,---,0.00,VWS V14.01,2013-04-07 11:42:00,
2013-04-07 05:47:00,32.9,22.1,29.89,West,277,1.0,1.0,64,0.00,,---,0.00,VWS V14.01,2013-04-07 11:47:00,
2013-04-07 05:52:00,32.9,22.1,29.90,West,277,1.0,1.0,64,0.00,,---,0.00,VWS V14.01,2013-04-07 11:52:00,
2013-04-07 05:57:00,32.9,22.1,29.89,West,277,1.0,1.0,64,0.00,,---,0.00,VWS V14.01,2013-04-07 11:57:00,
2013-04-07 06:02:00,32.9,22.1,29.90,West,277,1.0,1.0,64,0.00,,---,0.00,VWS V14.01,2013-04-07 12:02:00,
2013-04-07 06:07:00,32.9,22.1,29.90,West,277,1.0,1.0,64,0.00,,---,0.00,VWS V14.01,2013-04-07 12:07:00,
2013-04-07 06:12:00,32.9,22.1,29.90,West,277,1.0,1.0,64,0.00,,---,0.00,VWS V14.01,2013-04-07 12:12:00,
2013-04-07 06:17:00,32.9,22.1,29.92,West,277,1.0,1.0,64,0.00,,---,0.00,VWS V14.01,2013-04-07 12:17:00,
2013-04-07 06:22:00,32.9,22.1,29.91,West,277,1.0,1.0,64,0.00,,---,0.00,VWS V14.01,2013-04-07 12:22:00,
2013-04-07 06:27:00,32.9,22.1,29.91,West,277,1.0,1.0,64,0.00,,---,0.00,VWS V14.01,2013-04-07 12:27:00,
2013-04-07 06:32:00,32.9,22.1,29.91,West,277,1.0,1.0,64,0.00,,---,0.00,VWS V14.01,2013-04-07 12:32:00,
2013-04-07 06:37:00,32.9,22.1,29.91,West,277,1.0,1.0,64,0.00,,---,0.00,VWS V14.01,2013-04-07 12:37:00,
2013-04-07 06:42:00,32.9,22.1,29.92,West,277,1.0,1.0,64,0.00,,---,0.00,VWS V14.01,2013-04-07 12:42:00,
2013-04-07 06:47:00,32.9,22.1,29.91,West,277,1.0,1.0,64,0.00,,---,0.00,VWS V14.01,2013-04-07 12:47:00,
2013-04-07 06:53:00,32.9,22.1,29.91,West,277,1.0,1.0,64,0.00,,---,0.00,VWS V14.01,2013-04-07 12:53:00,
2013-04-07 06:58:00,32.9,22.1,29.91,West,277,1.0,1.0,64,0.00,,---,0.00,VWS V14.01,2013-04-07 12:58:00,
2013-04-07 07:03:00,32.9,22.1,29.91,West,277,1.0,1.0,64,0.00,,---,0.00,VWS V14.01,2013-04-07 13:03:00,
2013-04-07 07:08:00,32.9,22.1,29.92,West,277,1.0,1.0,64,0.00,,---,0.00,VWS V14.01,2013-04-07 13:08:00,
2013-04-07 07:13:00,32.9,22.1,29.91,West,277,1.0,1.0,64,0.00,,---,0.00,VWS V14.01,2013-04-07 13:13:00,
2013-04-07 07:18:00,32.9,22.1,29.91,West,277,1.0,1.0,64,0.00,,---,0.00,VWS V14.01,2013-04-07 13:18:00,
2013-04-07 07:23:00,32.9,22.1,29.90,West,277,1.0,1.0,64,0.00,,---,0.00,VWS V14.01,2013-04-07 13:23:00,
2013-04-07 07:28:00,32.9,22.1,29.91,West,277,1.0,1.0,64,0.00,,---,0.00,VWS V14.01,2013-04-07 13:28:00,
2013-04-07 07:33:00,32.9,22.1,29.91,West,277,1.0,1.0,64,0.00,,---,0.00,VWS V14.01,2013-04-07 13:33:00,
2013-04-07 07:38:00,32.9,22.1,29.91,West,277,1.0,1.0,64,0.00,,---,0.00,VWS V14.01,2013-04-07 13:38:00,
2013-04-07 07:43:00,32.9,22.1,29.90,West,277,1.0,1.0,64,0.00,,---,0.00,VWS V14.01,2013-04-07 13:43:00,
2013-04-07 07:48:00,32.9,22.1,29.90,West,277,1.0,1.0,64,0.00,,---,0.00,VWS V14.01,2013-04-07 13:48:00,
2013-04-07 07:53:00,33.9,21.5,29.90,WSW,242,6.0,11.0,60,0.00,,---,0.00,VWS V14.01,2013-04-07 13:53:00,
2013-04-07 07:58:00,34.2,21.4,29.90,WNW,284,3.0,11.0,59,0.00,,---,0.00,VWS V14.01,2013-04-07 13:58:00,
2013-04-07 08:03:00,34.4,21.6,29.90,NNE,20,3.0,11.0,59,0.00,,---,0.00,VWS V14.01,2013-04-07 14:03:00,
2013-04-07 08:08:00,34.7,22.2,29.90,SW,231,5.0,9.0,60,0.00,,---,0.00,VWS V14.01,2013-04-07 14:08:00,
2013-04-07 08:13:00,34.9,22.4,29.90,WNW,282,3.0,13.0,60,0.00,,---,0.00,VWS V14.01,2013-04-07 14:13:00,
2013-04-07 08:18:00,35.1,22.2,29.90,NNE,13,3.0,13.0,59,0.00,,---,0.00,VWS V14.01,2013-04-07 14:18:00,
2013-04-07 08:23:00,35.3,22.4,29.90,North,359,5.0,13.0,59,0.00,,---,0.00,VWS V14.01,2013-04-07 14:23:00,
2013-04-07 08:28:00,35.5,21.8,29.90,WNW,300,3.0,13.0,57,0.00,,---,0.00,VWS V14.01,2013-04-07 14:28:00,
2013-04-07 08:33:00,35.7,22.0,29.89,SSE,168,3.0,14.0,57,0.00,,---,0.00,VWS V14.01,2013-04-07 14:33:00,
2013-04-07 08:38:00,35.7,22.0,29.89,WNW,294,5.0,10.0,57,0.00,,---,0.00,VWS V14.01,2013-04-07 14:38:00,
2013-04-07 08:43:00,35.9,21.3,29.89,SW,233,1.0,10.0,55,0.00,,---,0.00,VWS V14.01,2013-04-07 14:43:00,
2013-04-07 08:48:00,36.1,21.9,29.89,SE,134,2.0,10.0,56,0.00,,---,0.00,VWS V14.01,2013-04-07 14:48:00,
2013-04-07 08:53:00,36.7,21.2,29.88,West,274,2.0,11.0,53,0.00,,---,0.00,VWS V14.01,2013-04-07 14:53:00,
2013-04-07 08:58:00,37.3,20.9,29.88,SSW,211,3.0,13.0,51,0.00,,---,0.00,VWS V14.01,2013-04-07 14:58:00,
2013-04-07 09:03:00,37.7,20.8,29.88,WNW,288,5.0,13.0,50,0.00,,---,0.00,VWS V14.01,2013-04-07 15:03:00,
2013-04-07 09:08:00,38.0,20.5,29.88,West,274,4.0,13.0,49,0.00,,---,0.00,VWS V14.01,2013-04-07 15:08:00,
2013-04-07 09:13:00,38.3,20.8,29.89,West,277,4.0,13.0,49,0.00,,---,0.00,VWS V14.01,2013-04-07 15:13:00,
2013-04-07 09:18:00,38.5,19.5,29.88,SSW,195,4.0,13.0,46,0.00,,---,0.00,VWS V14.01,2013-04-07 15:18:00,
2013-04-07 09:23:00,38.7,21.7,29.87,West,274,4.0,13.0,50,0.00,,---,0.00,VWS V14.01,2013-04-07 15:23:00,
2013-04-07 09:28:00,38.7,21.2,29.88,NNE,18,4.0,14.0,49,0.00,,---,0.00,VWS V14.01,2013-04-07 15:28:00,
2013-04-07 09:33:00,39.0,20.5,29.88,NW,312,4.0,14.0,47,0.01,,---,0.01,VWS V14.01,2013-04-07 15:33:00,
2013-04-07 09:38:00,39.3,21.3,29.88,WNW,300,4.0,8.0,48,0.01,,---,0.01,VWS V14.01,2013-04-07 15:38:00,
2013-04-07 09:43:00,39.5,21.5,29.88,WSW,244,1.0,8.0,48,0.01,,---,0.01,VWS V14.01,2013-04-07 15:43:00,
2013-04-07 09:48:00,40.0,21.9,29.88,West,270,4.0,8.0,48,0.01,,---,0.01,VWS V14.01,2013-04-07 15:48:00,
2013-04-07 09:53:00,39.9,21.8,29.88,SSW,208,6.0,10.0,48,0.01,,---,0.01,VWS V14.01,2013-04-07 15:53:00,
2013-04-07 09:58:00,40.2,22.6,29.88,WSW,240,7.0,16.0,49,0.01,,---,0.01,VWS V14.01,2013-04-07 15:58:00,
2013-04-07 10:04:00,40.7,22.1,29.88,ESE,108,4.0,16.0,47,0.01,,---,0.01,VWS V14.01,2013-04-07 16:04:00,
2013-04-07 10:09:00,40.6,22.0,29.88,WSW,248,3.0,9.0,47,0.01,,---,0.01,VWS V14.01,2013-04-07 16:09:00,
2013-04-07 10:14:00,40.8,22.1,29.88,West,259,2.0,9.0,47,0.01,,---,0.01,VWS V14.01,2013-04-07 16:14:00,
2013-04-07 10:19:00,40.7,22.5,29.89,SW,219,3.0,12.0,48,0.01,,---,0.01,VWS V14.01,2013-04-07 16:19:00,
2013-04-07 10:24:00,40.9,22.2,29.88,WSW,246,6.0,12.0,47,0.01,,---,0.01,VWS V14.01,2013-04-07 16:24:00,
2013-04-07 10:29:00,40.9,21.7,29.89,West,276,3.0,14.0,46,0.01,,---,0.01,VWS V14.01,2013-04-07 16:29:00,
2013-04-07 10:34:00,41.3,22.1,29.88,SW,221,2.0,2.0,46,0.00,,---,0.01,VWS V14.01,2013-04-07 16:34:00,
2013-04-07 10:39:00,41.1,21.4,29.88,ESE,104,2.0,12.0,45,0.00,,---,0.01,VWS V14.01,2013-04-07 16:39:00,
2013-04-07 10:44:00,40.9,21.2,29.88,SW,221,5.0,12.0,45,0.00,,---,0.01,VWS V14.01,2013-04-07 16:44:00,
2013-04-07 10:49:00,41.0,22.3,29.88,WSW,237,5.0,12.0,47,0.00,,---,0.01,VWS V14.01,2013-04-07 16:49:00,
2013-04-07 10:54:00,41.1,21.4,29.88,WSW,240,6.0,13.0,45,0.00,,---,0.01,VWS V14.01,2013-04-07 16:54:00,
2013-04-07 10:59:00,41.5,22.3,29.89,SW,233,2.0,13.0,46,0.00,,---,0.01,VWS V14.01,2013-04-07 16:59:00,
2013-04-07 11:04:00,42.0,21.1,29.88,SW,233,3.0,4.0,43,0.00,,---,0.01,VWS V14.01,2013-04-07 17:04:00,
2013-04-07 11:09:00,42.1,21.2,29.87,North,359,9.0,9.0,43,0.00,,---,0.01,VWS V14.01,2013-04-07 17:09:00,
2013-04-07 11:14:00,42.2,22.4,29.88,West,260,8.0,11.0,45,0.00,,---,0.01,VWS V14.01,2013-04-07 17:14:00,
2013-04-07 11:19:00,42.3,21.4,29.89,ENE,71,2.0,13.0,43,0.00,,---,0.01,VWS V14.01,2013-04-07 17:19:00,
2013-04-07 11:24:00,42.6,21.1,29.88,SE,128,5.0,13.0,42,0.00,,---,0.01,VWS V14.01,2013-04-07 17:24:00,
2013-04-07 11:29:00,43.1,22.1,29.88,NNW,338,2.0,13.0,43,0.00,,---,0.01,VWS V14.01,2013-04-07 17:29:00,
2013-04-07 11:34:00,42.9,20.3,29.88,West,259,7.0,7.0,40,0.00,,---,0.01,VWS V14.01,2013-04-07 17:34:00,
2013-04-07 11:39:00,42.5,21.6,29.88,SW,231,4.0,12.0,43,0.00,,---,0.01,VWS V14.01,2013-04-07 17:39:00,
2013-04-07 11:45:00,43.0,21.5,29.89,North,358,2.0,12.0,42,0.00,,---,0.01,VWS V14.01,2013-04-07 17:45:00,
2013-04-07 11:49:00,43.2,21.7,29.88,ESE,103,4.0,12.0,42,0.00,,---,0.01,VWS V14.01,2013-04-07 17:49:00,
2013-04-07 11:55:00,43.0,22.0,29.88,North,6,6.0,14.0,43,0.00,,---,0.01,VWS V14.01,2013-04-07 17:55:00,
2013-04-07 12:00:00,43.6,23.1,29.88,SW,228,5.0,14.0,44,0.00,,---,0.01,VWS V14.01,2013-04-07 18:00:00,
2013-04-07 12:05:00,43.3,21.8,29.87,West,262,2.0,8.0,42,0.00,,---,0.01,VWS V14.01,2013-04-07 18:05:00,
2013-04-07 12:10:00,43.7,21.0,29.87,WSW,253,2.0,8.0,40,0.00,,---,0.01,VWS V14.01,2013-04-07 18:10:00,
2013-04-07 12:15:00,44.0,21.2,29.86,SW,235,4.0,13.0,40,0.00,,---,0.01,VWS V14.01,2013-04-07 18:15:00,
2013-04-07 12:20:00,43.9,20.6,29.88,SE,135,4.0,13.0,39,0.00,,---,0.01,VWS V14.01,2013-04-07 18:20:00,
2013-04-07 12:25:00,44.7,21.9,29.87,SSW,210,5.0,13.0,40,0.00,,---,0.01,VWS V14.01,2013-04-07 18:25:00,
2013-04-07 12:30:00,44.4,21.0,29.87,NE,54,2.0,14.0,39,0.00,,---,0.01,VWS V14.01,2013-04-07 18:30:00,
2013-04-07 12:35:00,44.1,21.9,29.87,NNW,340,1.0,3.0,41,0.00,,---,0.01,VWS V14.01,2013-04-07 18:35:00,
2013-04-07 12:40:00,44.7,21.9,29.87,SE,125,3.0,7.0,40,0.00,,---,0.01,VWS V14.01,2013-04-07 18:40:00,
2013-04-07 12:45:00,45.1,22.8,29.87,SSW,198,1.0,9.0,41,0.00,,---,0.01,VWS V14.01,2013-04-07 18:45:00,
2013-04-07 12:50:00,44.6,22.9,29.86,SE,143,4.0,9.0,42,0.00,,---,0.01,VWS V14.01,2013-04-07 18:50:00,
2013-04-07 12:55:00,44.7,24.1,29.86,ENE,78,5.0,9.0,44,0.00,,---,0.01,VWS V14.01,2013-04-07 18:55:00,
2013-04-07 13:00:00,45.1,24.0,29.86,SE,132,1.0,9.0,43,0.00,,---,0.01,VWS V14.01,2013-04-07 19:00:00,
2013-04-07 13:05:00,44.6,23.5,29.87,NW,314,3.0,5.0,43,0.00,,---,0.01,VWS V14.01,2013-04-07 19:05:00,
2013-04-07 13:10:00,44.2,25.3,29.88,North,8,4.0,19.0,47,0.00,,---,0.01,VWS V14.01,2013-04-07 19:10:00,
2013-04-07 13:15:00,43.5,28.0,29.88,East,93,2.0,19.0,54,0.00,,---,0.01,VWS V14.01,2013-04-07 19:15:00,
2013-04-07 13:20:00,42.6,29.3,29.87,ESE,117,3.0,19.0,59,0.00,,---,0.01,VWS V14.01,2013-04-07 19:20:00,
2013-04-07 13:25:00,41.5,30.2,29.86,NNW,337,4.0,19.0,64,0.00,,---,0.01,VWS V14.01,2013-04-07 19:25:00,
2013-04-07 13:30:00,40.8,31.1,29.84,SE,129,3.0,19.0,68,0.00,,---,0.01,VWS V14.01,2013-04-07 19:30:00,
2013-04-07 13:35:00,41.8,30.9,29.84,SSW,203,4.0,8.0,65,0.00,,---,0.01,VWS V14.01,2013-04-07 19:35:00,
2013-04-07 13:40:00,42.7,27.2,29.83,West,264,2.0,10.0,54,0.00,,---,0.01,VWS V14.01,2013-04-07 19:40:00,
2013-04-07 13:45:00,43.9,25.5,29.83,SSW,211,5.0,11.0,48,0.00,,---,0.01,VWS V14.01,2013-04-07 19:45:00,
2013-04-07 13:51:00,44.2,24.2,29.83,SSW,212,9.0,19.0,45,0.00,,---,0.01,VWS V14.01,2013-04-07 19:51:00,
2013-04-07 13:56:00,44.2,24.2,29.82,South,191,3.0,19.0,45,0.00,,---,0.01,VWS V14.01,2013-04-07 19:56:00,
2013-04-07 14:01:00,44.4,23.3,29.82,SSW,194,5.0,19.0,43,0.00,,---,0.01,VWS V14.01,2013-04-07 20:01:00,
2013-04-07 14:06:00,44.3,22.7,29.81,WNW,284,5.0,12.0,42,0.00,,---,0.01,VWS V14.01,2013-04-07 20:06:00,
2013-04-07 14:11:00,44.8,22.0,29.81,West,270,3.0,13.0,40,0.00,,---,0.01,VWS V14.01,2013-04-07 20:11:00,
2013-04-07 14:16:00,44.7,21.9,29.81,WNW,290,10.0,20.0,40,0.00,,---,0.01,VWS V14.01,2013-04-07 20:16:00,
2013-04-07 14:21:00,45.2,22.3,29.81,WNW,290,14.0,20.0,40,0.00,,---,0.01,VWS V14.01,2013-04-07 20:21:00,
2013-04-07 14:26:00,45.1,21.6,29.81,WSW,241,5.0,20.0,39,0.00,,---,0.01,VWS V14.01,2013-04-07 20:26:00,
2013-04-07 14:31:00,45.0,22.1,29.82,WSW,253,9.0,20.0,40,0.00,,---,0.01,VWS V14.01,2013-04-07 20:31:00,
2013-04-07 14:36:00,45.5,22.6,29.82,NNE,27,6.0,11.0,40,0.00,,---,0.01,VWS V14.01,2013-04-07 20:36:00,
2013-04-07 14:41:00,44.0,24.0,29.83,WSW,255,9.0,15.0,45,0.00,,---,0.01,VWS V14.01,2013-04-07 20:41:00,
2013-04-07 14:46:00,43.0,24.2,29.82,WSW,245,8.0,15.0,47,0.00,,---,0.01,VWS V14.01,2013-04-07 20:46:00,
2013-04-07 14:51:00,42.2,25.9,29.83,NW,326,5.0,15.0,52,0.00,,---,0.01,VWS V14.01,2013-04-07 20:51:00,
2013-04-07 14:56:00,40.9,26.4,29.84,SSW,210,10.0,15.0,56,0.00,,---,0.01,VWS V14.01,2013-04-07 20:56:00,
2013-04-07 15:01:00,40.6,27.8,29.84,South,189,3.0,15.0,60,0.00,,---,0.01,VWS V14.01,2013-04-07 21:01:00,
2013-04-07 15:06:00,40.6,28.2,29.84,SW,218,2.0,5.0,61,0.00,,---,0.01,VWS V14.01,2013-04-07 21:06:00,
2013-04-07 15:11:00,40.4,28.0,29.84,East,94,4.0,12.0,61,0.00,,---,0.01,VWS V14.01,2013-04-07 21:11:00,
2013-04-07 15:16:00,40.6,27.8,29.84,West,271,4.0,12.0,60,0.00,,---,0.01,VWS V14.01,2013-04-07 21:16:00,
2013-04-07 15:21:00,39.9,28.0,29.84,WSW,240,3.0,12.0,62,0.00,,---,0.01,VWS V14.01,2013-04-07 21:21:00,
2013-04-07 15:27:00,39.1,28.0,29.84,WSW,246,4.0,12.0,64,0.00,,---,0.01,VWS V14.01,2013-04-07 21:27:00,
2013-04-07 15:32:00,38.4,28.4,29.85,West,271,2.0,12.0,67,0.00,,---,0.01,VWS V14.01,2013-04-07 21:32:00,
2013-04-07 15:37:00,37.8,28.9,29.85,WSW,256,1.0,4.0,70,0.00,,---,0.01,VWS V14.01,2013-04-07 21:37:00,
2013-04-07 15:42:00,37.5,29.0,29.85,West,262,3.0,4.0,71,0.00,,---,0.01,VWS V14.01,2013-04-07 21:42:00,
2013-04-07 15:47:00,37.9,29.4,29.85,NNE,26,2.0,5.0,71,0.00,,---,0.01,VWS V14.01,2013-04-07 21:47:00,
2013-04-07 15:52:00,38.3,29.4,29.85,West,276,0.0,5.0,70,0.00,,---,0.01,VWS V14.01,2013-04-07 21:52:00,
2013-04-07 15:57:00,38.5,29.9,29.85,SW,231,1.0,6.0,71,0.00,,---,0.01,VWS V14.01,2013-04-07 21:57:00,
2013-04-07 16:02:00,38.4,29.5,29.84,WSW,238,1.0,6.0,70,0.00,,---,0.01,VWS V14.01,2013-04-07 22:02:00,
2013-04-07 16:07:00,38.8,29.5,29.85,West,281,3.0,6.0,69,0.00,,---,0.01,VWS V14.01,2013-04-07 22:07:00,
2013-04-07 16:12:00,39.5,27.6,29.85,WSW,252,6.0,6.0,62,0.00,,---,0.01,VWS V14.01,2013-04-07 22:12:00,
2013-04-07 16:17:00,39.9,28.0,29.85,West,264,0.0,6.0,62,0.00,,---,0.01,VWS V14.01,2013-04-07 22:17:00,
2013-04-07 16:22:00,40.0,27.6,29.85,NW,322,1.0,6.0,61,0.00,,---,0.01,VWS V14.01,2013-04-07 22:22:00,
2013-04-07 16:27:00,39.7,27.8,29.85,ENE,65,1.0,6.0,62,0.00,,---,0.01,VWS V14.01,2013-04-07 22:27:00,
2013-04-07 16:32:00,39.7,27.8,29.85,West,262,4.0,6.0,62,0.01,,---,0.02,VWS V14.01,2013-04-07 22:32:00,
2013-04-07 16:37:00,40.2,26.2,29.85,WSW,253,3.0,10.0,57,0.01,,---,0.02,VWS V14.01,2013-04-07 22:37:00,
2013-04-07 16:42:00,39.9,26.3,29.86,SW,229,3.0,10.0,58,0.01,,---,0.02,VWS V14.01,2013-04-07 22:42:00,
2013-04-07 16:47:00,39.7,26.1,29.86,WNW,288,2.0,10.0,58,0.01,,---,0.02,VWS V14.01,2013-04-07 22:47:00,
2013-04-07 16:52:00,39.8,25.4,29.86,SSW,210,2.0,10.0,56,0.01,,---,0.02,VWS V14.01,2013-04-07 22:52:00,
2013-04-07 16:57:00,39.8,25.4,29.85,West,260,1.0,10.0,56,0.01,,---,0.02,VWS V14.01,2013-04-07 22:57:00,
2013-04-07 17:02:00,39.9,25.9,29.85,West,262,2.0,10.0,57,0.01,,---,0.02,VWS V14.01,2013-04-07 23:02:00,
2013-04-07 17:07:00,40.3,25.9,29.85,NW,319,3.0,6.0,56,0.01,,---,0.02,VWS V14.01,2013-04-07 23:07:00,
2013-04-07 17:12:00,40.7,24.5,29.85,WNW,301,3.0,6.0,52,0.01,,---,0.02,VWS V14.01,2013-04-07 23:12:00,
2013-04-07 17:17:00,41.0,23.8,29.84,WSW,248,3.0,7.0,50,0.01,,---,0.02,VWS V14.01,2013-04-07 23:17:00,
2013-04-07 17:22:00,41.1,23.9,29.84,West,260,3.0,9.0,50,0.01,,---,0.02,VWS V14.01,2013-04-07 23:22:00,
2013-04-07 17:27:00,41.2,23.5,29.84,WSW,244,4.0,9.0,49,0.01,,---,0.02,VWS V14.01,2013-04-07 23:27:00,
2013-04-07 17:32:00,41.2,24.5,29.84,SW,219,2.0,9.0,51,0.01,,---,0.02,VWS V14.01,2013-04-07 23:32:00,
2013-04-07 17:37:00,41.0,25.2,29.84,WSW,238,3.0,4.0,53,0.00,,---,0.02,VWS V14.01,2013-04-07 23:37:00,
2013-04-07 17:42:00,40.9,25.1,29.84,SW,236,2.0,6.0,53,0.00,,---,0.02,VWS V14.01,2013-04-07 23:42:00,
2013-04-07 17:47:00,41.0,24.7,29.84,WSW,250,3.0,8.0,52,0.00,,---,0.02,VWS V14.01,2013-04-07 23:47:00,
2013-04-07 17:52:00,41.1,25.3,29.83,WSW,250,5.0,8.0,53,0.00,,---,0.02,VWS V14.01,2013-04-07 23:52:00,
2013-04-07 17:57:00,41.2,24.5,29.83,WSW,245,3.0,8.0,51,0.00,,---,0.02,VWS V14.01,2013-04-07 23:57:00,
2013-04-07 18:02:00,41.3,23.6,29.83,WSW,253,2.0,8.0,49,0.00,,---,0.02,VWS V14.01,2013-04-08 00:02:00,
2013-04-07 18:07:00,41.3,24.1,29.83,WSW,248,3.0,7.0,50,0.00,,---,0.02,VWS V14.01,2013-04-08 00:07:00,
2013-04-07 18:12:00,41.2,24.0,29.82,NNE,13,6.0,8.0,50,0.00,,---,0.02,VWS V14.01,2013-04-08 00:12:00,
2013-04-07 18:17:00,41.2,24.0,29.83,WSW,245,5.0,8.0,50,0.00,,---,0.02,VWS V14.01,2013-04-08 00:17:00,
2013-04-07 18:22:00,41.1,24.4,29.83,SW,231,2.0,8.0,51,0.00,,---,0.02,VWS V14.01,2013-04-08 00:22:00,
2013-04-07 18:27:00,41.1,24.4,29.83,South,186,4.0,8.0,51,0.00,,---,0.02,VWS V14.01,2013-04-08 00:27:00,
2013-04-07 18:32:00,41.1,24.8,29.83,ESE,120,2.0,9.0,52,0.00,,---,0.02,VWS V14.01,2013-04-08 00:32:00,
2013-04-07 18:37:00,41.2,24.0,29.83,WSW,243,6.0,7.0,50,0.00,,---,0.02,VWS V14.01,2013-04-08 00:37:00,
2013-04-07 18:42:00,41.2,24.0,29.83,SW,217,4.0,11.0,50,0.00,,---,0.02,VWS V14.01,2013-04-08 00:42:00,
2013-04-07 18:47:00,41.2,24.9,29.84,WSW,256,4.0,11.0,52,0.00,,---,0.02,VWS V14.01,2013-04-08 00:47:00,
2013-04-07 18:52:00,40.6,26.1,29.84,SW,228,2.0,15.0,56,0.00,,---,0.02,VWS V14.01,2013-04-08 00:52:00,
2013-04-07 18:57:00,40.2,26.2,29.84,WSW,250,2.0,15.0,57,0.00,,---,0.02,VWS V14.01,2013-04-08 00:57:00,
2013-04-07 19:02:00,40.1,26.9,29.84,SSW,210,1.0,15.0,59,0.00,,---,0.02,VWS V14.01,2013-04-08 01:02:00,
2013-04-07 19:07:00,39.7,26.6,29.84,West,262,4.0,6.0,59,0.00,,---,0.02,VWS V14.01,2013-04-08 01:07:00,
2013-04-07 19:12:00,39.7,26.6,29.83,WNW,300,1.0,11.0,59,0.00,,---,0.02,VWS V14.01,2013-04-08 01:12:00,
2013-04-07 19:17:00,39.7,26.1,29.83,NW,325,4.0,11.0,58,0.00,,---,0.02,VWS V14.01,2013-04-08 01:17:00,
2013-04-07 19:22:00,39.6,26.9,29.84,SSE,162,3.0,11.0,60,0.00,,---,0.02,VWS V14.01,2013-04-08 01:22:00,
2013-04-07 19:27:00,39.0,27.9,29.84,SSW,212,3.0,11.0,64,0.00,,---,0.02,VWS V14.01,2013-04-08 01:27:00,
2013-04-07 19:32:00,38.5,27.4,29.85,WSW,245,2.0,11.0,64,0.00,,---,0.02,VWS V14.01,2013-04-08 01:32:00,
2013-04-07 19:37:00,38.3,26.4,29.85,WSW,252,1.0,11.0,62,0.00,,---,0.02,VWS V14.01,2013-04-08 01:37:00,
2013-04-07 19:42:00,38.5,25.8,29.85,West,259,3.0,11.0,60,0.00,,---,0.02,VWS V14.01,2013-04-08 01:42:00,
2013-04-07 19:47:00,38.4,26.1,29.84,WNW,284,2.0,11.0,61,0.00,,---,0.02,VWS V14.01,2013-04-08 01:47:00,
2013-04-07 19:52:00,38.3,25.6,29.84,SSW,207,2.0,11.0,60,0.00,,---,0.02,VWS V14.01,2013-04-08 01:52:00,
2013-04-07 19:57:00,38.2,25.5,29.83,WSW,257,6.0,11.0,60,0.00,,---,0.02,VWS V14.01,2013-04-08 01:57:00,
2013-04-07 20:02:00,38.3,24.8,29.82,West,275,4.0,11.0,58,0.00,,---,0.02,VWS V14.01,2013-04-08 02:02:00,
2013-04-07 20:07:00,38.4,24.5,29.82,SW,232,3.0,8.0,57,0.00,,---,0.02,VWS V14.01,2013-04-08 02:07:00,
2013-04-07 20:12:00,38.5,24.6,29.82,NW,307,1.0,12.0,57,0.00,,---,0.02,VWS V14.01,2013-04-08 02:12:00,
2013-04-07 20:17:00,38.8,24.5,29.82,WSW,245,3.0,12.0,56,0.00,,---,0.02,VWS V14.01,2013-04-08 02:17:00,
2013-04-07 20:22:00,39.1,24.3,29.82,North,1,5.0,12.0,55,0.00,,---,0.02,VWS V14.01,2013-04-08 02:22:00,
2013-04-07 20:27:00,39.3,24.5,29.83,WNW,291,4.0,12.0,55,0.00,,---,0.02,VWS V14.01,2013-04-08 02:27:00,
2013-04-07 20:33:00,39.3,25.4,29.84,WSW,238,4.0,12.0,57,0.00,,---,0.02,VWS V14.01,2013-04-08 02:33:00,
2013-04-07 20:38:00,38.9,26.6,29.85,SW,228,2.0,7.0,61,0.00,,---,0.02,VWS V14.01,2013-04-08 02:38:00,
2013-04-07 20:43:00,38.6,27.5,29.86,SW,225,2.0,7.0,64,0.00,,---,0.02,VWS V14.01,2013-04-08 02:43:00,
2013-04-07 20:48:00,37.5,29.6,29.86,South,187,2.0,7.0,73,0.00,,---,0.02,VWS V14.01,2013-04-08 02:48:00,
2013-04-07 20:53:00,36.1,29.9,29.85,SSW,207,0.0,7.0,78,0.00,,---,0.02,VWS V14.01,2013-04-08 02:53:00,
2013-04-07 20:58:00,35.5,29.3,29.84,NW,319,1.0,7.0,78,0.00,,---,0.02,VWS V14.01,2013-04-08 02:58:00,
2013-04-07 21:03:00,35.3,29.1,29.84,WSW,248,0.0,7.0,78,0.00,,---,0.02,VWS V14.01,2013-04-08 03:03:00,
2013-04-07 21:08:00,35.5,28.0,29.84,WSW,251,1.0,3.0,74,0.00,,---,0.02,VWS V14.01,2013-04-08 03:08:00,
2013-04-07 21:13:00,36.3,27.1,29.83,SSW,210,1.0,5.0,69,0.00,,---,0.02,VWS V14.01,2013-04-08 03:13:00,
2013-04-07 21:18:00,36.8,27.2,29.83,SE,130,1.0,5.0,68,0.00,,---,0.02,VWS V14.01,2013-04-08 03:18:00,
2013-04-07 21:23:00,36.8,26.9,29.83,South,177,2.0,5.0,67,0.00,,---,0.02,VWS V14.01,2013-04-08 03:23:00,
2013-04-07 21:28:00,37.0,26.3,29.83,WNW,286,2.0,5.0,65,0.00,,---,0.02,VWS V14.01,2013-04-08 03:28:00,
2013-04-07 21:33:00,37.1,26.8,29.84,WSW,250,2.0,7.0,66,0.00,,---,0.02,VWS V14.01,2013-04-08 03:33:00,
2013-04-07 21:38:00,37.7,26.3,29.85,SSW,203,2.0,4.0,63,0.00,,---,0.02,VWS V14.01,2013-04-08 03:38:00,
2013-04-07 21:43:00,38.1,25.5,29.84,SSW,205,1.0,8.0,60,0.00,,---,0.02,VWS V14.01,2013-04-08 03:43:00,
2013-04-07 21:48:00,38.5,25.4,29.85,SW,221,1.0,8.0,59,0.00,,---,0.02,VWS V14.01,2013-04-08 03:48:00,
2013-04-07 21:53:00,38.8,26.1,29.85,WSW,253,1.0,8.0,60,0.00,,---,0.02,VWS V14.01,2013-04-08 03:53:00,
2013-04-07 21:58:00,39.0,25.5,29.85,SSW,197,1.0,8.0,58,0.00,,---,0.02,VWS V14.01,2013-04-08 03:58:00,
2013-04-07 22:00:00,39.0,25.9,29.85,SE,131,2.0,8.0,59,0.00,,---,0.02,VWS V14.01,2013-04-08 04:00:00,
2013-04-07 22:01:00,39.1,25.6,29.85,SW,218,2.0,8.0,58,0.00,,---,0.02,VWS V14.01,2013-04-08 04:01:00,
2013-04-07 22:06:00,39.1,25.6,29.85,WSW,243,4.0,4.0,58,0.00,,---,0.02,VWS V14.01,2013-04-08 04:06:00,
2013-04-07 22:11:00,39.1,25.2,29.85,SW,235,4.0,6.0,57,0.00,,---,0.02,VWS V14.01,2013-04-08 04:11:00,
2013-04-07 22:16:00,39.1,25.2,29.84,WSW,255,2.0,6.0,57,0.00,,---,0.02,VWS V14.01,2013-04-08 04:16:00,
2013-04-07 22:21:00,39.0,25.1,29.84,West,266,2.0,6.0,57,0.00,,---,0.02,VWS V14.01,2013-04-08 04:21:00,
2013-04-07 22:26:00,39.1,24.7,29.83,WSW,253,2.0,6.0,56,0.00,,---,0.02,VWS V14.01,2013-04-08 04:26:00,
2013-04-07 22:31:00,39.1,23.9,29.84,West,269,2.0,9.0,54,0.00,,---,0.02,VWS V14.01,2013-04-08 04:31:00,
2013-04-07 22:36:00,39.2,24.0,29.83,WNW,287,1.0,4.0,54,0.00,,---,0.02,VWS V14.01,2013-04-08 04:36:00,
2013-04-07 22:41:00,39.3,23.6,29.83,North,352,1.0,5.0,53,0.00,,---,0.02,VWS V14.01,2013-04-08 04:41:00,
2013-04-07 22:46:00,39.3,23.2,29.83,SSW,192,1.0,5.0,52,0.00,,---,0.02,VWS V14.01,2013-04-08 04:46:00,
2013-04-07 22:51:00,39.5,22.9,29.83,West,269,2.0,5.0,51,0.00,,---,0.02,VWS V14.01,2013-04-08 04:51:00,
2013-04-07 22:56:00,39.6,23.4,29.84,SW,231,0.0,5.0,52,0.00,,---,0.02,VWS V14.01,2013-04-08 04:56:00,
2013-04-07 23:01:00,39.5,23.8,29.84,West,260,0.0,5.0,53,0.00,,---,0.02,VWS V14.01,2013-04-08 05:01:00,
2013-04-07 23:07:00,39.5,23.4,29.85,SSW,197,4.0,7.0,52,0.00,,---,0.02,VWS V14.01,2013-04-08 05:07:00,
2013-04-07 23:12:00,40.0,23.4,29.87,WSW,243,4.0,10.0,51,0.00,,---,0.02,VWS V14.01,2013-04-08 05:12:00,
2013-04-07 23:17:00,39.6,23.9,29.85,SSW,193,0.0,12.0,53,0.00,,---,0.02,VWS V14.01,2013-04-08 05:17:00,
2013-04-07 23:22:00,39.1,24.7,29.86,SW,215,0.0,12.0,56,0.00,,---,0.02,VWS V14.01,2013-04-08 05:22:00,
2013-04-07 23:27:00,38.6,25.1,29.86,SSW,212,2.0,12.0,58,0.00,,---,0.02,VWS V14.01,2013-04-08 05:27:00,
2013-04-07 23:32:00,38.1,25.9,29.86,NW,305,1.0,12.0,61,0.00,,---,0.02,VWS V14.01,2013-04-08 05:32:00,
2013-04-07 23:36:00,37.8,25.6,29.85,West,275,1.0,4.0,61,0.00,,---,0.02,VWS V14.01,2013-04-08 05:36:00,
2013-04-07 23:41:00,37.5,25.3,29.85,WSW,248,1.0,4.0,61,0.00,,---,0.02,VWS V14.01,2013-04-08 05:41:00,
2013-04-07 23:46:00,37.4,25.2,29.85,West,276,1.0,5.0,61,0.00,,---,0.02,VWS V14.01,2013-04-08 05:46:00,
2013-04-07 23:51:00,37.2,25.0,29.85,WNW,300,1.0,5.0,61,0.00,,---,0.02,VWS V14.01,2013-04-08 05:51:00,
2013-04-07 23:57:00,37.0,24.8,29.85,SW,220,0.0,5.0,61,0.00,,---,0.02,VWS V14.01,2013-04-08 05:57:00,